Time;durP1;ratioP1;P1;durP2;ratioP2;P2;SDS_P1;SDS_P2;PMS_P1;PMS_P2;Temp;Humidity;BMP_temperature;BMP_pressure;BME280_temperature;BME280_humidity;BME280_pressure;Samples;Min_cycle;Max_cycle;Signal;HPM_P1;HPM_P2
2022/09/02 00:01:43;;;;;;;5.60;5.18;;;;;;;16.75;74.20;98728.31;4961573;28;103179;-64
2022/09/02 00:04:14;;;;;;;5.30;4.80;;;;;;;16.97;73.28;98732.41;4953235;28;102703;-65
2022/09/02 00:06:44;;;;;;;4.93;4.50;;;;;;;16.81;73.98;98722.34;4966394;28;105141;-64
2022/09/02 00:09:14;;;;;;;5.07;4.68;;;;;;;16.68;74.69;98715.69;4963779;28;104004;-64
2022/09/02 00:11:45;;;;;;;4.40;4.10;;;;;;;17.09;72.59;98725.88;4962878;28;103388;-65
2022/09/02 00:14:18;;;;;;;4.80;4.40;;;;;;;17.04;72.69;98724.63;4963128;28;102947;-64
2022/09/02 00:16:49;;;;;;;4.43;4.00;;;;;;;17.03;73.01;98717.59;4969359;28;103904;-64
2022/09/02 00:19:19;;;;;;;4.95;4.55;;;;;;;16.78;73.96;98716.50;4963956;28;103256;-64
2022/09/02 00:21:47;;;;;;;4.45;4.15;;;;;;;16.71;73.41;98712.72;4959540;28;102993;-65
2022/09/02 00:24:18;;;;;;;4.95;4.50;;;;;;;16.45;74.64;98711.72;4962725;28;103103;-64
2022/09/02 00:26:46;;;;;;;4.40;4.10;;;;;;;16.78;74.20;98709.34;4963105;28;103094;-64
2022/09/02 00:29:17;;;;;;;4.78;4.38;;;;;;;16.46;75.24;98710.72;4967887;28;103224;-64
2022/09/02 00:31:46;;;;;;;5.77;4.70;;;;;;;16.39;75.08;98704.31;4953011;28;103271;-64
2022/09/02 00:34:15;;;;;;;4.95;4.50;;;;;;;16.46;74.42;98705.41;4965217;28;103017;-64
2022/09/02 00:36:43;;;;;;;5.10;4.60;;;;;;;16.09;75.57;98702.72;4963367;28;104056;-64
2022/09/02 00:39:13;;;;;;;4.95;4.55;;;;;;;16.36;74.83;98705.47;4967675;28;103233;-64
2022/09/02 00:41:43;;;;;;;5.10;4.70;;;;;;;16.21;75.47;98701.56;4965045;28;103260;-64
2022/09/02 00:44:14;;;;;;;5.80;5.30;;;;;;;15.76;77.30;98695.25;4946169;28;102646;-64
2022/09/02 00:46:44;;;;;;;5.90;5.30;;;;;;;15.15;80.59;98700.03;4948926;28;104282;-64
2022/09/02 00:49:17;;;;;;;5.57;5.10;;;;;;;14.94;81.65;98686.84;4956493;28;103244;-64
2022/09/02 00:51:49;;;;;;;5.35;4.95;;;;;;;14.90;82.21;98696.09;4965576;28;103189;-64
2022/09/02 00:54:21;;;;;;;5.80;5.30;;;;;;;14.76;82.90;98693.84;4962107;28;102639;-64
2022/09/02 00:56:50;;;;;;;5.43;5.03;;;;;;;14.87;82.24;98699.03;4973589;28;103940;-64
2022/09/02 00:59:30;;;;;;;5.40;4.97;;;;;;;14.94;82.07;98693.00;4969337;28;104228;-64
2022/09/02 01:01:59;;;;;;;5.45;5.05;;;;;;;14.93;81.78;98693.16;4962083;28;103190;-64
2022/09/02 01:04:28;;;;;;;5.53;5.03;;;;;;;14.95;81.85;98688.53;4968023;28;103210;-64
2022/09/02 01:06:56;;;;;;;5.25;4.75;;;;;;;14.90;82.17;98690.78;4963670;28;102714;-64
2022/09/02 01:09:23;;;;;;;5.60;5.10;;;;;;;14.81;82.72;98694.25;4968548;28;103323;-63
2022/09/02 01:11:52;;;;;;;6.27;4.90;;;;;;;14.78;82.83;98692.72;4971309;28;103247;-63
2022/09/02 01:14:21;;;;;;;5.75;5.25;;;;;;;14.80;82.76;98695.22;4972049;28;102948;-63
2022/09/02 01:16:52;;;;;;;5.80;5.38;;;;;;;14.70;83.04;98695.22;4970823;28;104163;-64
2022/09/02 01:19:24;;;;;;;5.80;5.30;;;;;;;14.66;83.41;98703.59;4967317;28;103702;-64
2022/09/02 01:21:57;;;;;;;6.18;5.57;;;;;;;14.59;83.57;98698.00;4966508;28;103190;-63
2022/09/02 01:24:29;;;;;;;6.38;5.40;;;;;;;14.63;83.32;98698.53;4973726;28;102645;-63
2022/09/02 01:27:00;;;;;;;6.07;5.40;;;;;;;14.57;83.64;98691.13;4967907;28;104445;-63
2022/09/02 01:29:29;;;;;;;6.10;5.60;;;;;;;14.47;84.14;98691.94;4949116;28;103277;-64
2022/09/02 01:31:57;;;;;;;6.75;5.40;;;;;;;14.57;83.50;98699.09;4969218;28;103196;-63
2022/09/02 01:34:25;;;;;;;5.50;5.07;;;;;;;14.65;83.27;98701.94;4950100;28;102848;-64
2022/09/02 01:36:54;;;;;;;5.80;4.93;;;;;;;14.63;82.86;98698.53;4961002;28;102731;-64
2022/09/02 01:39:23;;;;;;;5.13;4.72;;;;;;;14.67;82.29;98702.63;4954397;28;103308;-63
2022/09/02 01:41:52;;;;;;;5.67;4.90;;;;;;;14.62;82.40;98702.19;4959230;28;103493;-63
2022/09/02 01:44:20;;;;;;;5.40;4.95;;;;;;;14.61;82.16;98692.53;4969745;28;102755;-64
2022/09/02 01:46:50;;;;;;;4.90;4.50;;;;;;;14.76;81.27;98694.69;4968705;28;103888;-64
2022/09/02 01:49:18;;;;;;;5.00;4.50;;;;;;;14.63;81.59;98695.88;4972737;28;104085;-63
2022/09/02 01:51:46;;;;;;;4.57;4.20;;;;;;;14.71;81.08;98696.06;4950039;28;103241;-63
2022/09/02 01:54:16;;;;;;;5.03;4.20;;;;;;;14.76;81.23;98693.84;4972070;28;102752;-64
2022/09/02 01:56:46;;;;;;;4.93;4.40;;;;;;;14.73;80.72;98694.09;4962871;28;102651;-64
2022/09/02 01:59:16;;;;;;;4.63;4.22;;;;;;;14.67;81.12;98689.31;4971371;28;103213;-69
2022/09/02 02:01:45;;;;;;;4.57;4.17;;;;;;;14.73;80.74;98696.75;4964795;28;103549;-69
2022/09/02 02:04:15;;;;;;;4.28;3.88;;;;;;;14.73;80.30;98694.09;4966627;28;102905;-69
2022/09/02 02:06:47;;;;;;;5.28;3.90;;;;;;;14.98;79.21;98690.91;4951543;28;102881;-69
2022/09/02 02:09:21;;;;;;;4.10;3.80;;;;;;;15.28;77.72;98685.47;4954840;28;103182;-69
2022/09/02 02:11:53;;;;;;;3.50;3.20;;;;;;;15.85;75.48;98689.91;4947247;28;105110;-69
2022/09/02 02:14:22;;;;;;;4.03;3.70;;;;;;;15.38;76.67;98686.28;4965797;28;103063;-69
2022/09/02 02:16:51;;;;;;;4.15;3.75;;;;;;;15.14;77.93;98699.19;4952109;28;102736;-69
2022/09/02 02:19:19;;;;;;;3.47;3.17;;;;;;;15.47;77.32;98690.81;4965045;28;103227;-69
2022/09/02 02:21:49;;;;;;;4.37;3.97;;;;;;;15.16;77.33;98694.56;4963948;28;103653;-69
2022/09/02 02:24:17;;;;;;;3.50;3.20;;;;;;;15.65;75.35;98689.13;4961254;28;102729;-70
2022/09/02 02:26:46;;;;;;;3.53;3.20;;;;;;;15.79;75.08;98689.63;4948229;28;103353;-69
2022/09/02 02:29:17;;;;;;;3.30;3.00;;;;;;;16.09;73.35;98692.06;4950946;28;104596;-70
2022/09/02 02:31:45;;;;;;;4.88;3.40;;;;;;;16.20;72.53;98684.75;4942624;28;103186;-70
2022/09/02 02:34:13;;;;;;;4.20;3.80;;;;;;;15.63;74.94;98685.72;4966689;28;102669;-69
2022/09/02 02:36:43;;;;;;;3.97;3.67;;;;;;;15.58;75.77;98687.16;4952946;28;102952;-68
2022/09/02 02:39:12;;;;;;;4.35;3.97;;;;;;;15.69;74.88;98678.19;4961393;28;103648;-69
2022/09/02 02:41:41;;;;;;;3.90;3.50;;;;;;;15.80;73.61;98672.69;4945289;28;103249;-68
2022/09/02 02:44:12;;;;;;;4.43;3.85;;;;;;;15.30;76.98;98686.16;4968098;28;102793;-70
2022/09/02 02:46:41;;;;;;;4.13;3.83;;;;;;;14.91;78.75;98681.78;4966052;28;104158;-69
2022/09/02 02:49:11;;;;;;;4.70;4.30;;;;;;;14.93;78.76;98687.84;4965172;28;102988;-69
2022/09/02 02:51:39;;;;;;;4.70;4.20;;;;;;;14.72;79.21;98679.13;4944504;28;103320;-69
2022/09/02 02:54:09;;;;;;;4.40;4.10;;;;;;;14.55;79.92;98679.78;4948938;28;102663;-69
2022/09/02 02:56:37;;;;;;;3.70;3.40;;;;;;;15.01;77.93;98669.38;4948494;28;103923;-69
2022/09/02 02:59:05;;;;;;;4.53;4.10;;;;;;;14.81;78.46;98675.63;4950364;28;103552;-69
2022/09/02 03:01:34;;;;;;;4.30;3.90;;;;;;;14.95;77.71;98676.09;4949617;28;105493;-69
2022/09/02 03:04:06;;;;;;;4.30;3.90;;;;;;;14.96;77.63;98674.28;4945713;28;102689;-69
2022/09/02 03:06:34;;;;;;;4.43;4.03;;;;;;;14.75;78.48;98673.53;4962859;28;102659;-69
2022/09/02 03:09:04;;;;;;;4.50;4.20;;;;;;;14.85;78.91;98677.06;4940364;28;106046;-70
2022/09/02 03:11:35;;;;;;;5.65;4.60;;;;;;;14.91;78.73;98679.13;4953921;28;103267;-69
2022/09/02 03:14:07;;;;;;;4.47;4.18;;;;;;;14.74;78.99;98685.97;4946041;28;102860;-70
2022/09/02 03:16:36;;;;;;;4.82;4.43;;;;;;;14.60;80.12;98680.19;4968648;28;102833;-69
2022/09/02 03:19:06;;;;;;;4.60;4.30;;;;;;;14.83;78.95;98679.00;4968636;28;103484;-69
2022/09/02 03:21:34;;;;;;;5.15;4.60;;;;;;;14.38;80.84;98678.59;4950001;28;103417;-69
2022/09/02 03:24:08;;;;;;;4.90;4.50;;;;;;;14.37;81.34;98680.41;4965051;28;102714;-69
2022/09/02 03:26:38;;;;;;;4.80;4.40;;;;;;;14.46;80.48;98681.41;4954028;28;104551;-69
2022/09/02 03:29:06;;;;;;;4.77;4.37;;;;;;;14.22;81.02;98675.59;4969942;28;103752;-69
2022/09/02 03:31:34;;;;;;;5.00;4.60;;;;;;;14.21;81.57;98672.09;4952264;28;102989;-69
2022/09/02 03:34:03;;;;;;;4.75;4.35;;;;;;;14.14;82.24;98675.41;4952574;28;102655;-69
2022/09/02 03:36:38;;;;;;;4.97;4.47;;;;;;;14.04;83.01;98679.81;4949636;28;102721;-68
2022/09/02 03:39:11;;;;;;;4.60;4.20;;;;;;;14.30;80.64;98675.75;4941310;28;103471;-70
2022/09/02 03:41:42;;;;;;;4.65;4.25;;;;;;;14.16;82.24;98679.63;4951236;28;103723;-67
2022/09/02 03:44:11;;;;;;;4.75;4.35;;;;;;;14.10;82.02;98685.47;4969114;28;102898;-69
2022/09/02 03:46:40;;;;;;;4.70;4.32;;;;;;;13.98;82.50;98673.22;4947853;28;102768;-69
2022/09/02 03:49:08;;;;;;;5.20;4.70;;;;;;;14.11;81.20;98671.22;4966607;28;105276;-69
2022/09/02 03:51:42;;;;;;;4.72;4.32;;;;;;;14.28;80.46;98678.56;4971627;28;105311;-69
2022/09/02 03:54:11;;;;;;;4.53;4.13;;;;;;;14.46;80.18;98682.28;4964569;28;102650;-69
2022/09/02 03:56:40;;;;;;;2.90;2.60;;;;;;;15.07;76.95;98676.78;4952379;28;102846;-69
2022/09/02 03:59:09;;;;;;;4.45;4.13;;;;;;;14.76;77.48;98676.06;4940837;28;103825;-70
2022/09/02 04:01:37;;;;;;;3.85;3.55;;;;;;;15.00;76.93;98683.63;4964256;28;103332;-69
2022/09/02 04:04:05;;;;;;;5.10;4.70;;;;;;;14.07;81.30;98669.78;4964857;28;102850;-69
2022/09/02 04:06:36;;;;;;;5.78;4.70;;;;;;;13.67;83.36;98676.88;4969294;28;104074;-63
2022/09/02 04:09:07;;;;;;;5.28;4.78;;;;;;;13.96;81.45;98672.53;4963950;28;105103;-63
2022/09/02 04:11:41;;;;;;;5.00;4.60;;;;;;;14.03;81.96;98679.00;4957064;28;103743;-63
2022/09/02 04:14:11;;;;;;;4.67;4.27;;;;;;;14.76;78.42;98669.91;4951937;28;102989;-64
2022/09/02 04:20:48;;;;;;;4.85;4.45;;;;;;;13.67;82.48;98668.91;4968777;28;104391;-63
2022/09/02 04:23:16;;;;;;;4.38;4.05;;;;;;;13.84;82.74;98673.59;4961956;28;103431;-64
2022/09/02 04:25:46;;;;;;;4.20;3.80;;;;;;;14.04;81.15;98675.38;4968732;28;102722;-64
2022/09/02 04:28:16;;;;;;;3.60;3.30;;;;;;;14.68;78.61;98677.72;4964617;28;103145;-63
2022/09/02 04:30:46;;;;;;;3.50;3.20;;;;;;;14.93;76.87;98669.22;4949865;28;103666;-63
2022/09/02 04:33:14;;;;;;;2.95;2.75;;;;;;;15.17;75.46;98676.78;4948667;28;103296;-63
2022/09/02 04:35:48;;;;;;;2.95;2.75;;;;;;;15.30;74.44;98667.53;4950874;28;102791;-64
2022/09/02 04:38:19;;;;;;;2.97;2.78;;;;;;;15.36;73.72;98671.44;4951636;28;102655;-64
2022/09/02 04:40:49;;;;;;;3.83;3.53;;;;;;;15.15;74.28;98668.94;4964463;28;104045;-64
2022/09/02 04:43:19;;;;;;;2.97;2.78;;;;;;;15.31;74.19;98663.03;4964640;28;103230;-64
2022/09/02 04:45:47;;;;;;;2.50;2.30;;;;;;;15.43;73.13;98668.09;4952147;28;102881;-64
2022/09/02 04:48:19;;;;;;;3.65;2.92;;;;;;;15.53;72.53;98663.63;4952316;28;103974;-64
2022/09/02 04:50:48;;;;;;;4.17;3.77;;;;;;;15.41;72.66;98664.72;4958674;28;103252;-64
2022/09/02 04:53:18;;;;;;;3.70;3.40;;;;;;;15.43;72.22;98667.25;4944077;28;103231;-64
2022/09/02 04:55:47;;;;;;;2.70;2.50;;;;;;;15.47;72.14;98668.66;4950053;28;103102;-64
2022/09/02 04:58:16;;;;;;;3.00;2.80;;;;;;;15.42;72.52;98666.41;4969341;28;103958;-64
2022/09/02 05:00:47;;;;;;;2.95;2.75;;;;;;;15.50;72.00;98666.56;4938189;28;103237;-65
2022/09/02 05:03:18;;;;;;;3.67;3.28;;;;;;;15.42;72.06;98666.41;4969201;28;103348;-64
2022/09/02 05:05:48;;;;;;;4.07;3.40;;;;;;;15.32;72.86;98680.72;4969850;28;102659;-64
2022/09/02 05:08:22;;;;;;;3.10;2.80;;;;;;;15.20;73.85;98672.03;4957776;28;102775;-64
2022/09/02 05:10:54;;;;;;;3.60;3.30;;;;;;;15.21;74.13;98679.03;4940347;28;104073;-64
2022/09/02 05:13:24;;;;;;;2.63;2.43;;;;;;;15.39;73.14;98672.00;4947236;28;103951;-64
2022/09/02 05:15:53;;;;;;;3.50;3.23;;;;;;;15.45;72.62;98671.44;4939032;28;103301;-64
2022/09/02 05:18:22;;;;;;;3.25;3.05;;;;;;;15.53;72.63;98666.28;4951468;28;102724;-64
2022/09/02 05:20:50;;;;;;;3.22;2.60;;;;;;;15.59;72.01;98668.38;4946892;28;106335;-64
2022/09/02 05:23:19;;;;;;;3.00;2.80;;;;;;;15.65;71.79;98672.28;4968515;28;103207;-64
2022/09/02 05:25:47;;;;;;;2.55;2.35;;;;;;;15.72;71.19;98667.25;4949139;28;102715;-64
2022/09/02 05:28:17;;;;;;;2.80;2.60;;;;;;;15.76;70.99;98672.13;4943713;28;102821;-64
2022/09/02 05:30:48;;;;;;;2.80;2.60;;;;;;;15.78;71.12;98664.81;4937783;28;103295;-64
2022/09/02 05:33:17;;;;;;;2.85;2.65;;;;;;;15.84;71.02;98671.41;4948846;28;103238;-64
2022/09/02 05:35:48;;;;;;;3.10;2.90;;;;;;;15.86;71.08;98674.78;4950691;28;102752;-64
2022/09/02 05:38:17;;;;;;;2.83;2.63;;;;;;;15.92;70.83;98667.03;4941345;28;103178;-64
2022/09/02 05:40:47;;;;;;;3.10;2.90;;;;;;;15.90;70.94;98671.66;4950460;28;104109;-64
2022/09/02 05:43:15;;;;;;;3.03;2.83;;;;;;;16.00;70.77;98677.78;4962423;28;103220;-64
2022/09/02 05:45:43;;;;;;;3.90;3.50;;;;;;;15.95;71.31;98674.72;4967049;28;103894;-64
2022/09/02 05:51:04;;;;;;;3.63;3.33;;;;;;;15.07;76.41;98668.81;4965971;28;103539;-65
2022/09/02 05:53:33;;;;;;;4.05;3.67;;;;;;;14.53;78.44;98677.25;4970990;28;103414;-65
2022/09/02 05:56:04;;;;;;;3.60;3.30;;;;;;;14.86;78.12;98668.06;4942078;28;103289;-65
2022/09/02 05:58:34;;;;;;;4.13;3.60;;;;;;;14.68;78.52;98670.56;4949443;28;102713;-65
2022/09/02 06:01:07;;;;;;;3.92;3.38;;;;;;;14.72;78.34;98676.47;4945234;28;105345;-65
2022/09/02 06:03:37;;;;;;;3.80;3.13;;;;;;;15.03;76.28;98667.41;4970839;28;103243;-65
2022/09/02 06:06:07;;;;;;;4.82;3.45;;;;;;;14.93;77.38;98666.56;4969215;28;103214;-65
2022/09/02 06:08:40;;;;;;;3.67;3.13;;;;;;;14.99;76.99;98674.81;4951921;28;102785;-65
2022/09/02 06:11:10;;;;;;;4.10;2.90;;;;;;;15.49;75.00;98678.22;4961359;28;103632;-65
2022/09/02 06:13:42;;;;;;;4.47;3.50;;;;;;;15.34;75.77;98673.41;4950484;28;103196;-65
2022/09/02 06:16:14;;;;;;;3.38;2.97;;;;;;;15.20;74.76;98676.50;4954562;28;102773;-64
2022/09/02 06:18:45;;;;;;;3.40;3.00;;;;;;;15.76;73.20;98674.78;4957908;28;102687;-65
2022/09/02 06:21:14;;;;;;;5.10;3.10;;;;;;;15.29;75.63;98673.84;4970620;28;103263;-65
2022/09/02 06:23:45;;;;;;;3.78;3.33;;;;;;;15.86;74.60;98677.44;4954579;28;103196;-65
2022/09/02 06:26:17;;;;;;;7.75;3.47;;;;;;;15.21;75.68;98671.06;4965480;28;102892;-65
2022/09/02 06:28:46;;;;;;;3.38;3.08;;;;;;;15.51;76.29;98662.09;4945321;28;104468;-65
2022/09/02 06:31:18;;;;;;;2.85;2.65;;;;;;;16.37;73.07;98663.63;4947982;28;103347;-65
2022/09/02 06:33:52;;;;;;;3.50;3.20;;;;;;;16.20;72.67;98667.91;4944935;28;104124;-65
2022/09/02 06:36:23;;;;;;;3.25;2.95;;;;;;;16.72;71.30;98663.75;4942069;28;102634;-65
2022/09/02 06:38:58;;;;;;;2.90;2.60;;;;;;;17.21;68.90;98662.38;4950213;28;102885;-65
2022/09/02 06:41:29;;;;;;;3.30;3.00;;;;;;;17.12;67.39;98657.97;4945339;28;104048;-65
2022/09/02 06:44:03;;;;;;;3.45;2.55;;;;;;;17.13;68.84;98664.97;4937219;28;103258;-65
2022/09/02 06:46:39;;;;;;;4.00;2.90;;;;;;;17.30;68.15;98666.81;4972019;28;102679;-65
2022/09/02 06:49:10;;;;;;;4.70;2.70;;;;;;;17.32;68.07;98667.47;4949971;28;103598;-65
2022/09/02 06:51:41;;;;;;;5.37;3.07;;;;;;;17.33;68.88;98664.69;4953782;28;104401;-65
2022/09/02 06:54:12;;;;;;;2.70;2.50;;;;;;;17.85;66.40;98668.25;4950380;28;104141;-65
2022/09/02 06:56:41;;;;;;;6.95;2.70;;;;;;;17.58;67.14;98667.56;4963354;28;102722;-65
2022/09/02 06:59:17;;;;;;;3.97;2.90;;;;;;;17.72;67.08;98659.00;4970701;28;102971;-65
2022/09/02 07:01:50;;;;;;;3.50;2.70;;;;;;;17.99;65.29;98663.34;4944014;28;103436;-65
2022/09/02 07:07:10;;;;;;;4.23;2.77;;;;;;;18.39;64.38;98652.84;4954435;28;102861;-65
2022/09/02 07:09:49;;;;;;;3.63;2.50;;;;;;;18.64;63.02;98659.97;4954442;28;104271;-64
2022/09/02 07:12:18;;;;;;;4.43;2.63;;;;;;;18.48;63.53;98662.63;4958626;28;103589;-65
2022/09/02 07:14:52;;;;;;;4.68;2.53;;;;;;;18.63;63.24;98654.81;4971179;28;103238;-65
2022/09/02 07:17:28;;;;;;;4.22;2.20;;;;;;;18.91;63.12;98653.53;4949385;28;102994;-65
2022/09/02 07:20:04;;;;;;;3.43;2.30;;;;;;;18.93;62.91;98654.22;4951942;28;104077;-65
2022/09/02 07:22:39;;;;;;;5.28;2.47;;;;;;;18.78;61.89;98653.19;4943093;28;104221;-65
2022/09/02 07:25:10;;;;;;;2.35;2.15;;;;;;;19.48;60.95;98652.59;4952661;28;105332;-65
2022/09/02 07:27:38;;;;;;;2.85;2.30;;;;;;;19.53;60.12;98646.78;4950691;28;102753;-65
2022/09/02 07:30:11;;;;;;;3.08;2.22;;;;;;;19.49;59.99;98640.06;4950202;28;103105;-65
2022/09/02 07:32:40;;;;;;;2.97;2.60;;;;;;;19.40;60.24;98647.25;4946279;28;105297;-65
2022/09/02 07:35:11;;;;;;;3.17;2.20;;;;;;;19.53;59.74;98638.72;4964956;28;103275;-67
2022/09/02 07:37:40;;;;;;;2.80;2.00;;;;;;;20.45;58.56;98638.19;4946832;28;103109;-68
2022/09/02 07:40:13;;;;;;;3.40;2.05;;;;;;;20.56;57.57;98637.78;4955067;28;104418;-68
2022/09/02 07:42:44;;;;;;;4.55;2.20;;;;;;;20.63;56.66;98638.78;4977421;28;103022;-67
2022/09/02 07:45:13;;;;;;;3.35;2.17;;;;;;;20.29;56.55;98635.56;4968762;28;103403;-68
2022/09/02 07:47:43;;;;;;;2.70;1.98;;;;;;;20.99;55.26;98639.91;4963638;28;102800;-67
2022/09/02 07:50:15;;;;;;;2.17;1.90;;;;;;;21.49;54.84;98636.69;4967813;28;102725;-67
2022/09/02 07:52:52;;;;;;;2.75;1.70;;;;;;;21.63;54.77;98632.38;4964555;28;103269;-68
2022/09/02 07:55:21;;;;;;;2.47;1.77;;;;;;;21.91;53.06;98622.72;4967958;28;103221;-67
2022/09/02 07:57:53;;;;;;;3.15;1.90;;;;;;;21.80;54.05;98631.19;4944189;28;103046;-67
2022/09/02 08:00:26;;;;;;;3.30;1.80;;;;;;;22.02;52.18;98632.16;4941160;28;104439;-67
2022/09/02 08:02:56;;;;;;;2.15;1.45;;;;;;;22.35;52.03;98623.53;4962767;28;103239;-68
2022/09/02 08:05:32;;;;;;;2.17;1.80;;;;;;;22.56;50.71;98636.25;4973540;28;103231;-68
2022/09/02 08:08:03;;;;;;;2.00;1.80;;;;;;;22.84;50.15;98625.63;4965178;28;102743;-67
2022/09/02 08:10:32;;;;;;;2.60;1.63;;;;;;;23.33;49.53;98626.53;4966963;28;102736;-67
2022/09/02 08:13:01;;;;;;;2.70;1.60;;;;;;;23.54;48.58;98623.03;4950483;28;103086;-68
2022/09/02 08:15:30;;;;;;;2.13;1.67;;;;;;;23.60;47.44;98631.19;4964045;28;103184;-67
2022/09/02 08:18:11;;;;;;;2.50;1.52;;;;;;;23.46;47.47;98629.41;4962319;28;102908;-66
2022/09/02 08:20:55;;;;;;;2.58;1.63;;;;;;;23.77;47.86;98630.88;4966870;28;103073;-68
2022/09/02 08:23:23;;;;;;;3.20;1.60;;;;;;;24.31;47.17;98631.88;4960442;28;103946;-67
2022/09/02 08:26:07;;;;;;;3.53;1.60;;;;;;;24.02;46.14;98630.25;4943929;28;103136;-68
2022/09/02 08:28:35;;;;;;;3.75;1.70;;;;;;;23.42;47.27;98622.72;4946545;28;102687;-67
2022/09/02 08:31:07;;;;;;;3.17;1.58;;;;;;;24.31;46.54;98628.38;4957256;28;102746;-68
2022/09/02 08:33:35;;;;;;;3.97;1.73;;;;;;;24.42;45.94;98631.31;4961130;28;103550;-67
2022/09/02 08:36:09;;;;;;;2.28;1.45;;;;;;;25.30;45.29;98620.41;4962543;28;103415;-67
2022/09/02 08:38:38;;;;;;;3.80;1.60;;;;;;;25.48;44.24;98622.53;4962558;28;102902;-67
2022/09/02 08:41:13;;;;;;;1.60;1.40;;;;;;;24.53;44.65;98619.13;4964762;28;103902;-67
2022/09/02 08:43:44;;;;;;;3.20;1.70;;;;;;;25.03;44.53;98623.28;4962714;28;103033;-68
2022/09/02 08:46:16;;;;;;;2.70;1.37;;;;;;;25.83;44.36;98615.88;4963600;28;104050;-67
2022/09/02 08:48:49;;;;;;;2.50;1.63;;;;;;;26.33;44.06;98613.53;4962404;28;102809;-67
2022/09/02 08:51:23;;;;;;;2.30;1.42;;;;;;;26.49;42.55;98616.59;4959762;28;104178;-67
2022/09/02 08:53:57;;;;;;;2.42;1.45;;;;;;;26.23;42.53;98607.69;4964332;28;103179;-67
2022/09/02 08:56:26;;;;;;;3.00;1.60;;;;;;;26.33;42.36;98600.78;4961818;28;103269;-67
2022/09/02 08:58:56;;;;;;;2.42;1.30;;;;;;;26.35;44.27;98603.31;4965031;28;102835;-67
2022/09/02 09:01:33;;;;;;;1.67;1.58;;;;;;;26.81;40.74;98603.94;4948394;28;102832;-67
2022/09/02 09:04:16;;;;;;;2.22;1.30;;;;;;;26.63;41.87;98598.41;4949009;28;103314;-67
2022/09/02 09:07:04;;;;;;;3.67;1.30;;;;;;;26.57;41.99;98596.53;4966262;28;103687;-67
2022/09/02 09:09:49;;;;;;;1.85;1.50;;;;;;;26.47;41.43;98596.19;4966470;28;102737;-67
2022/09/02 09:12:29;;;;;;;1.97;1.20;;;;;;;27.08;40.00;98592.97;4965580;28;103257;-67
2022/09/02 09:15:06;;;;;;;3.33;1.40;;;;;;;26.79;40.29;98597.09;4965539;28;103274;-67
2022/09/02 09:17:43;;;;;;;2.67;1.37;;;;;;;27.36;38.86;98577.13;4963250;28;103803;-67
2022/09/02 09:20:18;;;;;;;2.35;1.38;;;;;;;25.85;40.72;98586.72;4968390;28;102911;-67
2022/09/02 09:22:49;;;;;;;2.47;1.10;;;;;;;26.38;39.76;98576.63;4966852;28;103477;-67
2022/09/02 09:25:18;;;;;;;2.00;1.30;;;;;;;26.22;39.48;98581.66;4967952;28;103299;-65
2022/09/02 09:27:47;;;;;;;3.43;1.37;;;;;;;26.81;39.09;98581.44;4967360;28;103038;-65
2022/09/02 09:30:15;;;;;;;2.75;1.33;;;;;;;24.97;41.82;98576.28;4971123;28;102704;-65
2022/09/02 09:32:46;;;;;;;3.70;1.30;;;;;;;26.13;40.10;98566.69;4967516;28;102749;-64
2022/09/02 09:35:17;;;;;;;1.77;1.20;;;;;;;26.16;39.13;98564.38;4973040;28;103330;-64
2022/09/02 09:37:49;;;;;;;2.65;1.27;;;;;;;26.71;40.06;98568.34;4966457;28;103116;-65
2022/09/02 09:40:23;;;;;;;1.60;1.20;;;;;;;27.72;37.85;98558.25;4960660;28;102788;-65
2022/09/02 09:42:55;;;;;;;1.63;1.10;;;;;;;27.75;37.28;98557.81;4968322;28;102700;-65
2022/09/02 09:45:30;;;;;;;2.25;1.10;;;;;;;28.04;38.03;98573.41;4950269;28;104389;-65
2022/09/02 09:48:17;;;;;;;2.72;1.10;;;;;;;27.35;36.95;98562.72;4970178;28;103456;-64
2022/09/02 09:50:47;;;;;;;1.30;1.00;;;;;;;27.55;35.90;98554.44;4971598;28;102845;-64
2022/09/02 09:53:20;;;;;;;2.20;1.03;;;;;;;26.61;36.47;98549.00;4969519;28;103778;-64
2022/09/02 09:55:54;;;;;;;2.83;1.00;;;;;;;26.38;37.85;98559.53;4963684;28;103475;-65
2022/09/02 09:58:24;;;;;;;2.60;1.10;;;;;;;27.20;37.47;98555.97;4943256;28;103435;-64
2022/09/02 10:00:59;;;;;;;3.10;1.07;;;;;;;27.42;34.79;98552.69;4969883;28;102815;-65
2022/09/02 10:03:30;;;;;;;1.15;1.00;;;;;;;26.06;37.20;98550.47;4965180;28;103021;-65
2022/09/02 10:06:18;;;;;;;2.13;1.08;;;;;;;25.99;38.43;98559.66;4951787;28;104153;-65
2022/09/02 10:08:53;;;;;;;1.63;0.95;;;;;;;26.28;36.95;98549.16;4945343;28;104118;-65
2022/09/02 10:11:25;;;;;;;1.30;0.93;;;;;;;27.30;35.59;98545.47;4966155;28;103293;-65
2022/09/02 10:13:58;;;;;;;2.00;0.90;;;;;;;27.43;35.85;98545.38;4969436;28;103359;-65
2022/09/02 10:16:41;;;;;;;1.20;1.10;;;;;;;27.08;38.26;98538.75;4947219;28;103248;-65
2022/09/02 10:19:23;;;;;;;1.70;1.27;;;;;;;27.52;35.85;98531.31;4957894;28;103190;-66
2022/09/02 10:22:05;;;;;;;1.67;0.98;;;;;;;27.39;35.85;98541.44;4971283;28;103745;-65
2022/09/02 10:24:50;;;;;;;1.65;1.10;;;;;;;26.97;35.14;98538.41;4968739;28;103044;-65
2022/09/02 10:27:26;;;;;;;2.75;1.20;;;;;;;27.73;35.22;98532.78;4970146;28;103271;-65
2022/09/02 10:29:59;;;;;;;2.25;1.08;;;;;;;27.15;35.22;98531.38;4965863;28;103200;-65
2022/09/02 10:32:48;;;;;;;1.40;1.00;;;;;;;27.01;34.17;98534.19;4968107;28;103085;-65
2022/09/02 10:35:21;;;;;;;2.22;1.30;;;;;;;27.01;35.00;98527.94;4966748;28;103058;-65
2022/09/02 10:38:06;;;;;;;2.75;1.50;;;;;;;27.94;35.63;98518.78;4965350;28;103742;-65
2022/09/02 10:40:43;;;;;;;3.05;1.35;;;;;;;27.30;34.97;98515.63;4964559;28;103215;-65
2022/09/02 10:43:26;;;;;;;2.28;1.15;;;;;;;27.46;34.54;98515.09;4964487;28;102752;-66
2022/09/02 10:45:59;;;;;;;2.30;1.40;;;;;;;27.27;34.16;98513.34;4964430;28;102769;-65
2022/09/02 10:48:45;;;;;;;2.10;1.20;;;;;;;26.74;35.47;98521.84;4949398;28;103322;-65
2022/09/02 10:51:20;;;;;;;1.55;1.05;;;;;;;26.97;34.41;98495.03;4964377;28;103231;-65
2022/09/02 10:53:59;;;;;;;1.95;1.17;;;;;;;27.70;33.98;98499.84;4947272;28;102800;-65
2022/09/02 10:56:34;;;;;;;2.10;1.00;;;;;;;27.79;33.21;98493.06;4946524;28;104457;-65
2022/09/02 10:59:07;;;;;;;1.52;1.02;;;;;;;27.60;33.53;98497.63;4964578;28;103131;-66
2022/09/02 11:01:46;;;;;;;3.00;1.00;;;;;;;26.58;34.30;98489.88;4962982;28;103277;-66
2022/09/02 11:04:22;;;;;;;1.77;0.93;;;;;;;27.59;33.67;98487.84;4965505;28;102950;-66
2022/09/02 11:06:53;;;;;;;2.23;1.10;;;;;;;27.87;32.85;98482.75;4964437;28;103062;-65
2022/09/02 11:09:36;;;;;;;4.57;1.20;;;;;;;27.97;32.73;98479.47;4948079;28;103371;-70
2022/09/02 11:12:14;;;;;;;2.95;0.90;;;;;;;27.09;33.40;98478.88;4967875;28;103175;-70
2022/09/02 11:14:53;;;;;;;2.43;1.10;;;;;;;27.82;32.96;98471.72;4964563;28;103152;-70
2022/09/02 11:17:30;;;;;;;2.70;1.08;;;;;;;27.26;33.42;98473.72;4965778;28;102816;-70
2022/09/02 11:20:06;;;;;;;2.78;1.10;;;;;;;28.09;32.49;98473.13;4948837;28;103553;-70
2022/09/02 11:22:44;;;;;;;1.50;1.00;;;;;;;26.49;34.17;98474.91;4965564;28;103178;-69
2022/09/02 11:25:16;;;;;;;1.80;0.90;;;;;;;28.03;32.38;98468.59;4964878;28;102882;-65
2022/09/02 11:27:52;;;;;;;1.45;1.00;;;;;;;27.56;31.98;98466.59;4966417;28;102890;-65
2022/09/02 11:30:24;;;;;;;2.30;1.07;;;;;;;27.70;32.29;98457.25;4966788;28;103733;-65
2022/09/02 11:32:59;;;;;;;2.20;0.90;;;;;;;27.38;32.58;98452.97;4967602;28;103197;-64
2022/09/02 11:35:38;;;;;;;1.80;1.00;;;;;;;27.57;32.80;98454.66;4964892;28;103024;-65
2022/09/02 11:38:18;;;;;;;3.43;1.17;;;;;;;27.55;32.17;98456.78;4958956;28;102902;-65
2022/09/02 11:41:06;;;;;;;1.15;0.90;;;;;;;27.52;32.28;98462.66;4965238;28;103834;-65
2022/09/02 11:44:03;;;;;;;1.60;0.90;;;;;;;27.84;32.42;98464.19;4967022;28;103534;-65
2022/09/02 11:46:47;;;;;;;1.63;0.90;;;;;;;27.50;33.26;98457.47;4947054;28;102914;-65
2022/09/02 11:49:51;;;;;;;2.72;1.00;;;;;;;27.72;32.50;98455.13;4967093;28;104095;-65
2022/09/02 11:52:39;;;;;;;1.43;1.00;;;;;;;28.45;32.15;98450.47;4962706;28;103237;-65
2022/09/02 11:55:15;;;;;;;1.85;1.00;;;;;;;28.31;31.67;98448.16;4966087;28;103240;-65
2022/09/02 11:57:51;;;;;;;2.17;1.15;;;;;;;28.02;32.61;98455.19;4945181;28;103290;-65